Terminal Aerodrome Forecast
Issued by NWS

Home | Current Version | Previous Version | Text Only | Print | Product List | Glossary On
Versions: 1 2 3 4 5 6 7 8 9 10 11 12 13
000
FTUS46 KSGX 301736
TAFSNA
TAF
KSNA 301736Z 3018/0118 24007KT P6SM SCT150
     FM302000 23010KT P6SM SCT150
     FM010600 22005KT P6SM SCT008
     FM011200 VRB05KT 5SM HZ BKN005
     FM011700 VRB05KT P6SM SCT012=

USA.gov is the U.S. government's official web portal to all federal, state and local government web resources and services.